Terminal Aerodrome Forecast
Issued by NWS St Louis, MO

Home | Current Version | Previous Version | Text Only | Print | Product List | Glossary On
Versions: 1 2 3 4 5 6 7 8 9 10 11 12 13 14
645
FTUS43 KLSX 261137
TAFCOU
TAF
KCOU 261137Z 2612/2712 16006KT P6SM SCT250
     FM261400 23008KT P6SM FEW060 BKN250
     FM270000 VRB05KT P6SM OVC250
     FM270700 VRB05KT 6SM -RA VCTS OVC040CB=

USA.gov is the U.S. government's official web portal to all federal, state and local government web resources and services.